sensor_id;sensor_type;location;lat;lon;timestamp;temperature;humidity
73939;DHT22;62291;47.554;8.504;2024-02-15T00:02:04;4.70;99.90
73939;DHT22;62291;47.554;8.504;2024-02-15T00:04:30;4.70;99.90
73939;DHT22;62291;47.554;8.504;2024-02-15T00:06:56;4.70;99.90
73939;DHT22;62291;47.554;8.504;2024-02-15T00:09:22;4.60;99.90
73939;DHT22;62291;47.554;8.504;2024-02-15T00:11:47;4.70;99.90
73939;DHT22;62291;47.554;8.504;2024-02-15T00:14:13;4.70;99.90
73939;DHT22;62291;47.554;8.504;2024-02-15T00:16:39;4.60;99.90
73939;DHT22;62291;47.554;8.504;2024-02-15T00:19:05;4.70;99.90
73939;DHT22;62291;47.554;8.504;2024-02-15T00:21:32;4.70;99.90
73939;DHT22;62291;47.554;8.504;2024-02-15T00:23:57;4.60;99.90
73939;DHT22;62291;47.554;8.504;2024-02-15T00:26:25;4.50;99.90
73939;DHT22;62291;47.554;8.504;2024-02-15T00:28:51;4.40;99.90
73939;DHT22;62291;47.554;8.504;2024-02-15T00:31:16;4.30;99.90
73939;DHT22;62291;47.554;8.504;2024-02-15T00:33:44;4.30;99.90
73939;DHT22;62291;47.554;8.504;2024-02-15T00:36:10;4.30;99.90
73939;DHT22;62291;47.554;8.504;2024-02-15T00:38:36;4.30;99.90
73939;DHT22;62291;47.554;8.504;2024-02-15T00:41:02;4.30;99.90
73939;DHT22;62291;47.554;8.504;2024-02-15T00:43:28;4.30;99.90
73939;DHT22;62291;47.554;8.504;2024-02-15T00:45:54;4.20;99.90
73939;DHT22;62291;47.554;8.504;2024-02-15T00:48:19;4.20;99.90
73939;DHT22;62291;47.554;8.504;2024-02-15T00:50:45;4.20;99.90
73939;DHT22;62291;47.554;8.504;2024-02-15T00:53:11;4.20;99.90
73939;DHT22;62291;47.554;8.504;2024-02-15T00:55:37;4.20;99.90
73939;DHT22;62291;47.554;8.504;2024-02-15T00:58:02;4.20;99.90
73939;DHT22;62291;47.554;8.504;2024-02-15T01:00:28;4.10;99.90
73939;DHT22;62291;47.554;8.504;2024-02-15T01:02:55;4.10;99.90
73939;DHT22;62291;47.554;8.504;2024-02-15T01:05:21;4.10;99.90
73939;DHT22;62291;47.554;8.504;2024-02-15T01:07:47;4.00;99.90
73939;DHT22;62291;47.554;8.504;2024-02-15T01:10:16;3.90;99.90
73939;DHT22;62291;47.554;8.504;2024-02-15T01:12:42;3.90;99.90
73939;DHT22;62291;47.554;8.504;2024-02-15T01:15:08;3.80;99.90
73939;DHT22;62291;47.554;8.504;2024-02-15T01:17:33;3.70;99.90
73939;DHT22;62291;47.554;8.504;2024-02-15T01:19:59;3.70;99.90
73939;DHT22;62291;47.554;8.504;2024-02-15T01:22:25;3.80;99.90
73939;DHT22;62291;47.554;8.504;2024-02-15T01:24:53;3.80;99.90
73939;DHT22;62291;47.554;8.504;2024-02-15T01:27:18;3.80;99.90
73939;DHT22;62291;47.554;8.504;2024-02-15T01:29:44;3.80;99.90
73939;DHT22;62291;47.554;8.504;2024-02-15T01:32:10;3.70;99.90
73939;DHT22;62291;47.554;8.504;2024-02-15T01:34:36;3.70;99.90
73939;DHT22;62291;47.554;8.504;2024-02-15T01:37:02;3.60;99.90
73939;DHT22;62291;47.554;8.504;2024-02-15T01:39:27;3.50;99.90
73939;DHT22;62291;47.554;8.504;2024-02-15T01:41:53;3.50;99.90
73939;DHT22;62291;47.554;8.504;2024-02-15T01:44:21;3.40;99.90
73939;DHT22;62291;47.554;8.504;2024-02-15T01:46:50;3.40;99.90
73939;DHT22;62291;47.554;8.504;2024-02-15T01:49:19;3.50;99.90
73939;DHT22;62291;47.554;8.504;2024-02-15T01:51:45;3.50;99.90
73939;DHT22;62291;47.554;8.504;2024-02-15T01:54:13;3.50;99.90
73939;DHT22;62291;47.554;8.504;2024-02-15T01:56:43;3.50;99.90
73939;DHT22;62291;47.554;8.504;2024-02-15T01:59:09;3.50;99.90
73939;DHT22;62291;47.554;8.504;2024-02-15T02:01:35;3.50;99.90
73939;DHT22;62291;47.554;8.504;2024-02-15T02:04:01;3.50;99.90
73939;DHT22;62291;47.554;8.504;2024-02-15T02:06:28;3.40;99.90
73939;DHT22;62291;47.554;8.504;2024-02-15T02:08:55;3.40;99.90
73939;DHT22;62291;47.554;8.504;2024-02-15T02:11:22;3.30;99.90
73939;DHT22;62291;47.554;8.504;2024-02-15T02:13:48;3.30;99.90
73939;DHT22;62291;47.554;8.504;2024-02-15T02:16:30;3.20;99.90
73939;DHT22;62291;47.554;8.504;2024-02-15T02:18:58;3.20;99.90
73939;DHT22;62291;47.554;8.504;2024-02-15T02:21:25;3.10;99.90
73939;DHT22;62291;47.554;8.504;2024-02-15T02:23:58;3.10;99.90
73939;DHT22;62291;47.554;8.504;2024-02-15T02:26:25;3.10;99.90
73939;DHT22;62291;47.554;8.504;2024-02-15T02:28:51;3.10;99.90
73939;DHT22;62291;47.554;8.504;2024-02-15T02:31:20;3.10;99.90
73939;DHT22;62291;47.554;8.504;2024-02-15T02:33:50;3.20;99.90
73939;DHT22;62291;47.554;8.504;2024-02-15T02:36:18;3.20;99.90
73939;DHT22;62291;47.554;8.504;2024-02-15T02:38:43;3.20;99.90
73939;DHT22;62291;47.554;8.504;2024-02-15T02:41:11;3.30;99.90
73939;DHT22;62291;47.554;8.504;2024-02-15T02:43:41;3.20;99.90
73939;DHT22;62291;47.554;8.504;2024-02-15T02:46:11;3.20;99.90
73939;DHT22;62291;47.554;8.504;2024-02-15T02:48:40;3.20;99.90
73939;DHT22;62291;47.554;8.504;2024-02-15T02:51:07;3.10;99.90
73939;DHT22;62291;47.554;8.504;2024-02-15T02:53:33;3.20;99.90
73939;DHT22;62291;47.554;8.504;2024-02-15T02:55:58;3.10;99.90
73939;DHT22;62291;47.554;8.504;2024-02-15T02:58:24;3.10;99.90
73939;DHT22;62291;47.554;8.504;2024-02-15T03:00:50;3.10;99.90
73939;DHT22;62291;47.554;8.504;2024-02-15T03:03:17;3.00;99.90
73939;DHT22;62291;47.554;8.504;2024-02-15T03:05:44;3.10;99.90
73939;DHT22;62291;47.554;8.504;2024-02-15T03:08:11;3.10;99.90
73939;DHT22;62291;47.554;8.504;2024-02-15T03:10:38;3.10;99.90
73939;DHT22;62291;47.554;8.504;2024-02-15T03:13:05;3.10;99.90
73939;DHT22;62291;47.554;8.504;2024-02-15T03:15:31;3.00;99.90
73939;DHT22;62291;47.554;8.504;2024-02-15T03:17:58;3.00;99.90
73939;DHT22;62291;47.554;8.504;2024-02-15T03:20:24;3.00;99.90
73939;DHT22;62291;47.554;8.504;2024-02-15T03:23:00;2.90;99.90
73939;DHT22;62291;47.554;8.504;2024-02-15T03:25:27;2.80;99.90
73939;DHT22;62291;47.554;8.504;2024-02-15T03:27:58;2.80;99.90
73939;DHT22;62291;47.554;8.504;2024-02-15T03:30:26;2.70;99.90
73939;DHT22;62291;47.554;8.504;2024-02-15T03:32:53;2.70;99.90
73939;DHT22;62291;47.554;8.504;2024-02-15T03:35:20;2.60;99.90
73939;DHT22;62291;47.554;8.504;2024-02-15T03:37:48;2.60;99.90
73939;DHT22;62291;47.554;8.504;2024-02-15T03:40:16;2.50;99.90
73939;DHT22;62291;47.554;8.504;2024-02-15T03:42:42;2.50;99.90
73939;DHT22;62291;47.554;8.504;2024-02-15T03:45:09;2.50;99.90
73939;DHT22;62291;47.554;8.504;2024-02-15T03:47:35;2.50;99.90
73939;DHT22;62291;47.554;8.504;2024-02-15T03:50:07;2.60;99.90
73939;DHT22;62291;47.554;8.504;2024-02-15T03:52:37;2.50;99.90
73939;DHT22;62291;47.554;8.504;2024-02-15T03:55:03;2.40;99.90
73939;DHT22;62291;47.554;8.504;2024-02-15T03:57:29;2.40;99.90
73939;DHT22;62291;47.554;8.504;2024-02-15T03:59:55;2.30;99.90
73939;DHT22;62291;47.554;8.504;2024-02-15T04:02:23;2.40;99.90
73939;DHT22;62291;47.554;8.504;2024-02-15T04:04:55;2.40;99.90
73939;DHT22;62291;47.554;8.504;2024-02-15T04:07:22;2.40;99.90
73939;DHT22;62291;47.554;8.504;2024-02-15T04:09:48;2.40;99.90
73939;DHT22;62291;47.554;8.504;2024-02-15T04:12:14;2.40;99.90
73939;DHT22;62291;47.554;8.504;2024-02-15T04:14:49;2.40;99.90
73939;DHT22;62291;47.554;8.504;2024-02-15T04:17:14;2.50;99.90
73939;DHT22;62291;47.554;8.504;2024-02-15T04:19:47;2.60;99.90
73939;DHT22;62291;47.554;8.504;2024-02-15T04:22:13;2.70;99.90
73939;DHT22;62291;47.554;8.504;2024-02-15T04:24:44;2.80;99.90
73939;DHT22;62291;47.554;8.504;2024-02-15T04:27:11;2.80;99.90
73939;DHT22;62291;47.554;8.504;2024-02-15T04:29:42;2.70;99.90
73939;DHT22;62291;47.554;8.504;2024-02-15T04:32:10;2.60;99.90
73939;DHT22;62291;47.554;8.504;2024-02-15T04:34:42;2.50;99.90
73939;DHT22;62291;47.554;8.504;2024-02-15T04:37:08;2.50;99.90
73939;DHT22;62291;47.554;8.504;2024-02-15T04:39:35;2.50;99.90
73939;DHT22;62291;47.554;8.504;2024-02-15T04:42:02;2.50;99.90
73939;DHT22;62291;47.554;8.504;2024-02-15T04:44:28;2.30;99.90
73939;DHT22;62291;47.554;8.504;2024-02-15T04:46:54;2.20;99.90
73939;DHT22;62291;47.554;8.504;2024-02-15T04:49:20;2.20;99.90
73939;DHT22;62291;47.554;8.504;2024-02-15T04:51:46;2.10;99.90
73939;DHT22;62291;47.554;8.504;2024-02-15T04:54:13;2.10;99.90
73939;DHT22;62291;47.554;8.504;2024-02-15T04:56:42;2.10;99.90
73939;DHT22;62291;47.554;8.504;2024-02-15T04:59:09;2.10;99.90
73939;DHT22;62291;47.554;8.504;2024-02-15T05:01:40;2.00;99.90
73939;DHT22;62291;47.554;8.504;2024-02-15T05:04:08;1.80;99.90
73939;DHT22;62291;47.554;8.504;2024-02-15T05:06:35;1.80;99.90
73939;DHT22;62291;47.554;8.504;2024-02-15T05:09:02;1.70;99.90
73939;DHT22;62291;47.554;8.504;2024-02-15T05:11:33;1.60;99.90
73939;DHT22;62291;47.554;8.504;2024-02-15T05:14:02;1.60;99.90
73939;DHT22;62291;47.554;8.504;2024-02-15T05:16:31;1.50;99.90
73939;DHT22;62291;47.554;8.504;2024-02-15T05:18:57;1.50;99.90
73939;DHT22;62291;47.554;8.504;2024-02-15T05:21:23;1.50;99.90
73939;DHT22;62291;47.554;8.504;2024-02-15T05:23:48;1.50;99.90
73939;DHT22;62291;47.554;8.504;2024-02-15T05:26:14;1.60;99.90
73939;DHT22;62291;47.554;8.504;2024-02-15T05:28:42;1.50;99.90
73939;DHT22;62291;47.554;8.504;2024-02-15T05:31:19;1.50;99.90
73939;DHT22;62291;47.554;8.504;2024-02-15T05:33:51;1.50;99.90
73939;DHT22;62291;47.554;8.504;2024-02-15T05:36:19;1.50;99.90
73939;DHT22;62291;47.554;8.504;2024-02-15T05:38:52;1.50;99.90
73939;DHT22;62291;47.554;8.504;2024-02-15T05:41:19;1.50;99.90
73939;DHT22;62291;47.554;8.504;2024-02-15T05:43:46;1.60;99.90
73939;DHT22;62291;47.554;8.504;2024-02-15T05:46:14;1.70;99.90
73939;DHT22;62291;47.554;8.504;2024-02-15T05:48:40;1.90;99.90
73939;DHT22;62291;47.554;8.504;2024-02-15T05:51:09;1.80;99.90
73939;DHT22;62291;47.554;8.504;2024-02-15T05:53:35;1.70;99.90
73939;DHT22;62291;47.554;8.504;2024-02-15T05:56:09;1.60;99.90
73939;DHT22;62291;47.554;8.504;2024-02-15T05:58:38;1.60;99.90
73939;DHT22;62291;47.554;8.504;2024-02-15T06:01:05;1.50;99.90
73939;DHT22;62291;47.554;8.504;2024-02-15T06:03:33;1.50;99.90
73939;DHT22;62291;47.554;8.504;2024-02-15T06:06:00;1.40;99.90
73939;DHT22;62291;47.554;8.504;2024-02-15T06:08:28;1.40;99.90
73939;DHT22;62291;47.554;8.504;2024-02-15T06:10:55;1.40;99.90
73939;DHT22;62291;47.554;8.504;2024-02-15T06:13:22;1.40;99.90
73939;DHT22;62291;47.554;8.504;2024-02-15T06:15:49;1.40;99.90
73939;DHT22;62291;47.554;8.504;2024-02-15T06:18:23;1.40;99.90
73939;DHT22;62291;47.554;8.504;2024-02-15T06:20:57;1.40;99.90
73939;DHT22;62291;47.554;8.504;2024-02-15T06:23:24;1.40;99.90
73939;DHT22;62291;47.554;8.504;2024-02-15T06:25:52;1.50;99.90
73939;DHT22;62291;47.554;8.504;2024-02-15T06:28:22;1.50;99.90
73939;DHT22;62291;47.554;8.504;2024-02-15T06:31:10;1.50;99.90
73939;DHT22;62291;47.554;8.504;2024-02-15T06:33:56;1.50;99.90
73939;DHT22;62291;47.554;8.504;2024-02-15T06:36:52;1.50;99.90
73939;DHT22;62291;47.554;8.504;2024-02-15T06:39:36;1.50;99.90
73939;DHT22;62291;47.554;8.504;2024-02-15T06:42:11;1.60;99.90
73939;DHT22;62291;47.554;8.504;2024-02-15T06:44:40;1.70;99.90
73939;DHT22;62291;47.554;8.504;2024-02-15T06:47:06;1.70;99.90
73939;DHT22;62291;47.554;8.504;2024-02-15T06:49:32;1.70;99.90
73939;DHT22;62291;47.554;8.504;2024-02-15T06:51:59;1.70;99.90
73939;DHT22;62291;47.554;8.504;2024-02-15T06:54:27;1.80;99.90
73939;DHT22;62291;47.554;8.504;2024-02-15T06:56:53;2.00;99.90
73939;DHT22;62291;47.554;8.504;2024-02-15T06:59:20;2.10;99.90
73939;DHT22;62291;47.554;8.504;2024-02-15T07:01:51;2.40;99.90
73939;DHT22;62291;47.554;8.504;2024-02-15T07:04:20;2.90;99.90
73939;DHT22;62291;47.554;8.504;2024-02-15T07:06:51;3.20;99.90
73939;DHT22;62291;47.554;8.504;2024-02-15T07:09:22;3.60;99.90
73939;DHT22;62291;47.554;8.504;2024-02-15T07:11:50;3.70;99.90
73939;DHT22;62291;47.554;8.504;2024-02-15T07:14:16;4.50;99.90
73939;DHT22;62291;47.554;8.504;2024-02-15T07:16:46;5.20;99.90
73939;DHT22;62291;47.554;8.504;2024-02-15T07:19:12;6.00;99.90
73939;DHT22;62291;47.554;8.504;2024-02-15T07:21:38;6.80;99.90
73939;DHT22;62291;47.554;8.504;2024-02-15T07:24:05;7.40;99.90
73939;DHT22;62291;47.554;8.504;2024-02-15T07:26:30;7.90;99.90
73939;DHT22;62291;47.554;8.504;2024-02-15T07:28:56;8.00;99.90
73939;DHT22;62291;47.554;8.504;2024-02-15T07:31:23;8.00;99.90
73939;DHT22;62291;47.554;8.504;2024-02-15T07:33:50;8.50;99.90
73939;DHT22;62291;47.554;8.504;2024-02-15T07:36:20;8.80;99.90
73939;DHT22;62291;47.554;8.504;2024-02-15T07:38:53;8.80;99.90
73939;DHT22;62291;47.554;8.504;2024-02-15T07:41:22;8.90;99.90
73939;DHT22;62291;47.554;8.504;2024-02-15T07:43:49;8.90;99.90
73939;DHT22;62291;47.554;8.504;2024-02-15T07:46:16;9.00;99.90
73939;DHT22;62291;47.554;8.504;2024-02-15T07:48:42;9.40;99.90
73939;DHT22;62291;47.554;8.504;2024-02-15T07:51:15;9.90;99.90
73939;DHT22;62291;47.554;8.504;2024-02-15T07:53:41;10.10;99.90
73939;DHT22;62291;47.554;8.504;2024-02-15T07:56:09;10.60;99.90
73939;DHT22;62291;47.554;8.504;2024-02-15T07:58:38;10.90;99.90
73939;DHT22;62291;47.554;8.504;2024-02-15T08:01:07;10.10;99.90
73939;DHT22;62291;47.554;8.504;2024-02-15T08:03:33;9.20;99.90
73939;DHT22;62291;47.554;8.504;2024-02-15T08:06:01;9.00;99.90
73939;DHT22;62291;47.554;8.504;2024-02-15T08:08:26;8.60;99.90
73939;DHT22;62291;47.554;8.504;2024-02-15T08:10:53;8.20;99.90
73939;DHT22;62291;47.554;8.504;2024-02-15T08:13:19;7.70;99.90
73939;DHT22;62291;47.554;8.504;2024-02-15T08:15:48;7.30;99.90
73939;DHT22;62291;47.554;8.504;2024-02-15T08:18:17;7.10;99.90
73939;DHT22;62291;47.554;8.504;2024-02-15T08:20:44;7.00;99.90
73939;DHT22;62291;47.554;8.504;2024-02-15T08:23:10;6.80;99.90
73939;DHT22;62291;47.554;8.504;2024-02-15T08:25:38;6.80;99.90
73939;DHT22;62291;47.554;8.504;2024-02-15T08:28:05;6.80;99.90
73939;DHT22;62291;47.554;8.504;2024-02-15T08:30:33;6.90;99.90
73939;DHT22;62291;47.554;8.504;2024-02-15T08:32:59;6.90;99.90
73939;DHT22;62291;47.554;8.504;2024-02-15T08:35:24;6.90;99.90
73939;DHT22;62291;47.554;8.504;2024-02-15T08:37:50;7.00;99.90
73939;DHT22;62291;47.554;8.504;2024-02-15T08:40:18;7.00;99.90
73939;DHT22;62291;47.554;8.504;2024-02-15T08:42:49;7.10;99.90
73939;DHT22;62291;47.554;8.504;2024-02-15T08:45:15;7.10;99.90
73939;DHT22;62291;47.554;8.504;2024-02-15T08:47:42;7.40;99.90
73939;DHT22;62291;47.554;8.504;2024-02-15T08:50:09;7.60;99.90
73939;DHT22;62291;47.554;8.504;2024-02-15T08:52:38;7.80;99.90
73939;DHT22;62291;47.554;8.504;2024-02-15T08:55:08;8.10;99.90
73939;DHT22;62291;47.554;8.504;2024-02-15T08:57:46;8.40;99.90
73939;DHT22;62291;47.554;8.504;2024-02-15T09:00:12;8.70;99.90
73939;DHT22;62291;47.554;8.504;2024-02-15T09:02:42;8.80;99.90
73939;DHT22;62291;47.554;8.504;2024-02-15T09:05:08;9.00;99.90
73939;DHT22;62291;47.554;8.504;2024-02-15T09:07:35;9.00;99.90
73939;DHT22;62291;47.554;8.504;2024-02-15T09:10:03;9.50;99.90
73939;DHT22;62291;47.554;8.504;2024-02-15T09:12:28;10.30;99.90
73939;DHT22;62291;47.554;8.504;2024-02-15T09:14:56;10.90;99.90
73939;DHT22;62291;47.554;8.504;2024-02-15T09:17:22;10.90;99.90
73939;DHT22;62291;47.554;8.504;2024-02-15T09:19:48;10.70;99.90
73939;DHT22;62291;47.554;8.504;2024-02-15T09:22:16;10.70;99.90
73939;DHT22;62291;47.554;8.504;2024-02-15T09:24:42;10.40;99.90
73939;DHT22;62291;47.554;8.504;2024-02-15T09:27:08;10.40;99.90
73939;DHT22;62291;47.554;8.504;2024-02-15T09:29:37;10.90;99.90
73939;DHT22;62291;47.554;8.504;2024-02-15T09:32:04;11.40;99.90
73939;DHT22;62291;47.554;8.504;2024-02-15T09:34:30;11.40;99.90
73939;DHT22;62291;47.554;8.504;2024-02-15T09:36:56;11.10;99.90
73939;DHT22;62291;47.554;8.504;2024-02-15T09:39:22;11.20;99.90
73939;DHT22;62291;47.554;8.504;2024-02-15T09:41:49;11.30;99.90
73939;DHT22;62291;47.554;8.504;2024-02-15T09:44:21;11.70;99.90
73939;DHT22;62291;47.554;8.504;2024-02-15T09:46:49;12.10;99.90
73939;DHT22;62291;47.554;8.504;2024-02-15T09:49:17;12.40;99.90
73939;DHT22;62291;47.554;8.504;2024-02-15T09:51:44;12.80;99.90
73939;DHT22;62291;47.554;8.504;2024-02-15T09:54:10;12.70;99.90
73939;DHT22;62291;47.554;8.504;2024-02-15T09:56:40;12.40;99.90
73939;DHT22;62291;47.554;8.504;2024-02-15T09:59:06;12.30;99.90
73939;DHT22;62291;47.554;8.504;2024-02-15T10:01:34;12.30;99.90
73939;DHT22;62291;47.554;8.504;2024-02-15T10:04:05;12.00;99.90
73939;DHT22;62291;47.554;8.504;2024-02-15T10:06:32;11.90;99.90
73939;DHT22;62291;47.554;8.504;2024-02-15T10:09:27;12.00;99.90
73939;DHT22;62291;47.554;8.504;2024-02-15T10:11:54;12.00;99.90
73939;DHT22;62291;47.554;8.504;2024-02-15T10:14:27;11.70;99.90
73939;DHT22;62291;47.554;8.504;2024-02-15T10:16:53;11.60;99.90
73939;DHT22;62291;47.554;8.504;2024-02-15T10:19:20;11.40;99.90
73939;DHT22;62291;47.554;8.504;2024-02-15T10:21:53;11.50;99.90
73939;DHT22;62291;47.554;8.504;2024-02-15T10:24:23;11.40;99.90
73939;DHT22;62291;47.554;8.504;2024-02-15T10:27:00;11.70;99.90
73939;DHT22;62291;47.554;8.504;2024-02-15T10:29:30;11.80;99.90
73939;DHT22;62291;47.554;8.504;2024-02-15T10:31:57;11.80;99.90
73939;DHT22;62291;47.554;8.504;2024-02-15T10:34:24;12.20;99.90
73939;DHT22;62291;47.554;8.504;2024-02-15T10:36:54;12.70;99.90
73939;DHT22;62291;47.554;8.504;2024-02-15T10:39:22;13.40;99.90
73939;DHT22;62291;47.554;8.504;2024-02-15T10:41:52;13.70;99.90
73939;DHT22;62291;47.554;8.504;2024-02-15T10:44:20;14.20;99.90
73939;DHT22;62291;47.554;8.504;2024-02-15T10:46:50;14.10;99.90
73939;DHT22;62291;47.554;8.504;2024-02-15T10:49:26;14.00;99.90
73939;DHT22;62291;47.554;8.504;2024-02-15T10:51:57;14.00;99.90
73939;DHT22;62291;47.554;8.504;2024-02-15T10:57:12;14.60;99.90
73939;DHT22;62291;47.554;8.504;2024-02-15T10:59:47;14.40;99.90
73939;DHT22;62291;47.554;8.504;2024-02-15T11:02:30;14.30;99.90
73939;DHT22;62291;47.554;8.504;2024-02-15T11:05:00;14.30;99.90
73939;DHT22;62291;47.554;8.504;2024-02-15T11:07:30;14.30;99.90
73939;DHT22;62291;47.554;8.504;2024-02-15T11:09:57;14.00;99.90
73939;DHT22;62291;47.554;8.504;2024-02-15T11:12:24;14.10;99.90
73939;DHT22;62291;47.554;8.504;2024-02-15T11:14:52;13.80;99.90
73939;DHT22;62291;47.554;8.504;2024-02-15T11:20:03;13.80;99.90
73939;DHT22;62291;47.554;8.504;2024-02-15T11:22:35;14.10;99.90
73939;DHT22;62291;47.554;8.504;2024-02-15T11:25:05;14.30;99.90
73939;DHT22;62291;47.554;8.504;2024-02-15T11:27:42;14.50;99.90
73939;DHT22;62291;47.554;8.504;2024-02-15T11:30:08;14.20;99.90
73939;DHT22;62291;47.554;8.504;2024-02-15T11:32:43;14.20;99.90
73939;DHT22;62291;47.554;8.504;2024-02-15T11:35:22;14.20;99.90
73939;DHT22;62291;47.554;8.504;2024-02-15T11:37:49;14.40;99.90
73939;DHT22;62291;47.554;8.504;2024-02-15T11:40:19;14.40;99.90
73939;DHT22;62291;47.554;8.504;2024-02-15T11:42:45;14.70;99.90
73939;DHT22;62291;47.554;8.504;2024-02-15T11:45:12;14.90;99.90
73939;DHT22;62291;47.554;8.504;2024-02-15T11:47:39;15.10;99.90
73939;DHT22;62291;47.554;8.504;2024-02-15T11:50:10;15.10;99.90
73939;DHT22;62291;47.554;8.504;2024-02-15T11:52:47;14.90;99.90
73939;DHT22;62291;47.554;8.504;2024-02-15T11:55:17;15.10;99.90
73939;DHT22;62291;47.554;8.504;2024-02-15T11:57:57;15.30;99.90
73939;DHT22;62291;47.554;8.504;2024-02-15T12:00:36;15.10;99.90
73939;DHT22;62291;47.554;8.504;2024-02-15T12:03:21;15.00;99.90
73939;DHT22;62291;47.554;8.504;2024-02-15T12:06:05;14.60;99.90
73939;DHT22;62291;47.554;8.504;2024-02-15T12:08:53;14.30;99.90
73939;DHT22;62291;47.554;8.504;2024-02-15T12:11:38;14.20;99.90
73939;DHT22;62291;47.554;8.504;2024-02-15T12:14:23;14.50;99.90
73939;DHT22;62291;47.554;8.504;2024-02-15T12:17:11;15.10;99.90
73939;DHT22;62291;47.554;8.504;2024-02-15T12:19:59;15.00;99.90
73939;DHT22;62291;47.554;8.504;2024-02-15T12:22:32;15.20;99.90
73939;DHT22;62291;47.554;8.504;2024-02-15T12:24:59;15.10;99.90
73939;DHT22;62291;47.554;8.504;2024-02-15T12:27:26;14.70;99.90
73939;DHT22;62291;47.554;8.504;2024-02-15T12:30:01;14.70;99.90
73939;DHT22;62291;47.554;8.504;2024-02-15T12:32:31;14.60;99.90
73939;DHT22;62291;47.554;8.504;2024-02-15T12:35:13;14.60;99.90
73939;DHT22;62291;47.554;8.504;2024-02-15T12:38:02;14.60;99.90
73939;DHT22;62291;47.554;8.504;2024-02-15T12:40:33;14.70;99.90
73939;DHT22;62291;47.554;8.504;2024-02-15T12:42:59;14.50;99.90
73939;DHT22;62291;47.554;8.504;2024-02-15T12:45:26;14.50;99.90
73939;DHT22;62291;47.554;8.504;2024-02-15T12:47:55;14.50;99.90
73939;DHT22;62291;47.554;8.504;2024-02-15T12:50:30;14.70;99.90
73939;DHT22;62291;47.554;8.504;2024-02-15T12:52:57;15.10;99.90
73939;DHT22;62291;47.554;8.504;2024-02-15T12:55:35;15.30;99.90
73939;DHT22;62291;47.554;8.504;2024-02-15T12:58:05;15.50;99.90
73939;DHT22;62291;47.554;8.504;2024-02-15T13:00:34;15.70;99.90
73939;DHT22;62291;47.554;8.504;2024-02-15T13:03:03;15.80;99.90
73939;DHT22;62291;47.554;8.504;2024-02-15T13:05:30;15.90;99.90
73939;DHT22;62291;47.554;8.504;2024-02-15T13:07:57;16.00;99.90
73939;DHT22;62291;47.554;8.504;2024-02-15T13:10:31;16.10;99.90
73939;DHT22;62291;47.554;8.504;2024-02-15T13:12:57;16.10;99.90
73939;DHT22;62291;47.554;8.504;2024-02-15T13:15:24;15.90;99.90
73939;DHT22;62291;47.554;8.504;2024-02-15T13:17:53;15.70;99.90
73939;DHT22;62291;47.554;8.504;2024-02-15T13:20:20;15.60;99.90
73939;DHT22;62291;47.554;8.504;2024-02-15T13:22:55;15.60;99.90
73939;DHT22;62291;47.554;8.504;2024-02-15T13:25:25;15.60;99.90
73939;DHT22;62291;47.554;8.504;2024-02-15T13:27:51;15.50;99.90
73939;DHT22;62291;47.554;8.504;2024-02-15T13:30:17;15.30;99.90
73939;DHT22;62291;47.554;8.504;2024-02-15T13:32:49;15.30;99.90
73939;DHT22;62291;47.554;8.504;2024-02-15T13:35:16;14.80;99.90
73939;DHT22;62291;47.554;8.504;2024-02-15T13:37:49;14.70;99.90
73939;DHT22;62291;47.554;8.504;2024-02-15T13:40:15;14.70;99.90
73939;DHT22;62291;47.554;8.504;2024-02-15T13:42:45;14.70;99.90
73939;DHT22;62291;47.554;8.504;2024-02-15T13:45:16;14.70;99.90
73939;DHT22;62291;47.554;8.504;2024-02-15T13:47:47;14.50;99.90
73939;DHT22;62291;47.554;8.504;2024-02-15T13:50:13;14.60;99.90
73939;DHT22;62291;47.554;8.504;2024-02-15T13:52:41;14.80;99.90
73939;DHT22;62291;47.554;8.504;2024-02-15T13:55:16;14.80;99.90
73939;DHT22;62291;47.554;8.504;2024-02-15T13:57:43;14.60;99.90
73939;DHT22;62291;47.554;8.504;2024-02-15T14:00:10;14.70;99.90
73939;DHT22;62291;47.554;8.504;2024-02-15T14:02:42;14.70;99.90
73939;DHT22;62291;47.554;8.504;2024-02-15T14:05:11;14.60;99.90
73939;DHT22;62291;47.554;8.504;2024-02-15T14:07:38;14.80;99.90
73939;DHT22;62291;47.554;8.504;2024-02-15T14:10:07;14.90;99.90
73939;DHT22;62291;47.554;8.504;2024-02-15T14:12:34;14.90;99.90
73939;DHT22;62291;47.554;8.504;2024-02-15T14:15:00;14.90;99.90
73939;DHT22;62291;47.554;8.504;2024-02-15T14:17:26;14.90;99.90
73939;DHT22;62291;47.554;8.504;2024-02-15T14:19:53;14.90;99.90
73939;DHT22;62291;47.554;8.504;2024-02-15T14:22:19;14.80;99.90
73939;DHT22;62291;47.554;8.504;2024-02-15T14:24:49;14.80;99.90
73939;DHT22;62291;47.554;8.504;2024-02-15T14:27:15;14.70;99.90
73939;DHT22;62291;47.554;8.504;2024-02-15T14:29:40;14.60;99.90
73939;DHT22;62291;47.554;8.504;2024-02-15T14:32:26;14.70;99.90
73939;DHT22;62291;47.554;8.504;2024-02-15T14:35:10;14.70;99.90
73939;DHT22;62291;47.554;8.504;2024-02-15T14:37:36;14.70;99.90
73939;DHT22;62291;47.554;8.504;2024-02-15T14:40:02;14.60;99.90
73939;DHT22;62291;47.554;8.504;2024-02-15T14:42:29;14.40;99.90
73939;DHT22;62291;47.554;8.504;2024-02-15T14:44:54;14.50;99.90
73939;DHT22;62291;47.554;8.504;2024-02-15T14:47:20;14.50;99.90
73939;DHT22;62291;47.554;8.504;2024-02-15T14:49:46;14.50;99.90
73939;DHT22;62291;47.554;8.504;2024-02-15T14:52:11;14.50;99.90
73939;DHT22;62291;47.554;8.504;2024-02-15T14:54:38;14.30;99.90
73939;DHT22;62291;47.554;8.504;2024-02-15T14:57:04;14.30;99.90
73939;DHT22;62291;47.554;8.504;2024-02-15T14:59:30;14.30;99.90
73939;DHT22;62291;47.554;8.504;2024-02-15T15:01:56;14.30;99.90
73939;DHT22;62291;47.554;8.504;2024-02-15T15:04:25;14.40;99.90
73939;DHT22;62291;47.554;8.504;2024-02-15T15:07:00;14.40;99.90
73939;DHT22;62291;47.554;8.504;2024-02-15T15:09:44;14.40;99.90
73939;DHT22;62291;47.554;8.504;2024-02-15T15:12:28;14.40;99.90
73939;DHT22;62291;47.554;8.504;2024-02-15T15:15:05;14.50;99.90
73939;DHT22;62291;47.554;8.504;2024-02-15T15:17:32;14.50;99.90
73939;DHT22;62291;47.554;8.504;2024-02-15T15:19:59;14.50;99.90
73939;DHT22;62291;47.554;8.504;2024-02-15T15:22:26;14.50;99.90
73939;DHT22;62291;47.554;8.504;2024-02-15T15:24:51;14.50;99.90
73939;DHT22;62291;47.554;8.504;2024-02-15T15:27:17;14.50;99.90
73939;DHT22;62291;47.554;8.504;2024-02-15T15:29:43;14.40;99.90
73939;DHT22;62291;47.554;8.504;2024-02-15T15:32:10;14.40;99.90
73939;DHT22;62291;47.554;8.504;2024-02-15T15:34:35;14.40;99.90
73939;DHT22;62291;47.554;8.504;2024-02-15T15:37:02;14.30;99.90
73939;DHT22;62291;47.554;8.504;2024-02-15T15:39:27;14.10;99.90
73939;DHT22;62291;47.554;8.504;2024-02-15T15:41:56;14.00;99.90
73939;DHT22;62291;47.554;8.504;2024-02-15T15:44:21;14.00;99.90
73939;DHT22;62291;47.554;8.504;2024-02-15T15:46:48;13.90;99.90
73939;DHT22;62291;47.554;8.504;2024-02-15T15:49:14;13.90;99.90
73939;DHT22;62291;47.554;8.504;2024-02-15T15:51:41;13.90;99.90
73939;DHT22;62291;47.554;8.504;2024-02-15T15:54:07;13.90;99.90
73939;DHT22;62291;47.554;8.504;2024-02-15T15:56:33;13.90;99.90